Time;durP1;ratioP1;P1;durP2;ratioP2;P2;SDS_P1;SDS_P2;PMS_P1;PMS_P2;Temp;Humidity;BMP_temperature;BMP_pressure;BME280_temperature;BME280_humidity;BME280_pressure;Samples;Min_cycle;Max_cycle;Signal;HPM_P1;HPM_P2
2022/03/26 00:00:36;;;;;;;71.07;33.75;;;4.60;99.90;;;;;;5064832;28;20080;-78
2022/03/26 00:03:02;;;;;;;65.95;32.15;;;4.50;99.90;;;;;;5054416;28;20027;-78
2022/03/26 00:05:28;;;;;;;71.28;33.58;;;4.50;99.90;;;;;;5054049;28;20025;-79
2022/03/26 00:07:53;;;;;;;62.63;31.45;;;4.50;99.90;;;;;;5054156;28;20124;-78
2022/03/26 00:10:19;;;;;;;62.95;33.88;;;4.50;99.90;;;;;;5054772;28;20036;-78
2022/03/26 00:12:45;;;;;;;70.13;33.47;;;4.50;99.90;;;;;;5055541;28;20057;-78
2022/03/26 00:15:12;;;;;;;63.78;33.15;;;4.50;99.90;;;;;;5055540;28;20089;-76
2022/03/26 00:17:39;;;;;;;67.65;31.92;;;4.50;99.90;;;;;;5035868;28;20073;-78
2022/03/26 00:20:06;;;;;;;66.47;32.15;;;4.60;99.90;;;;;;5054142;28;20040;-76
2022/03/26 00:22:32;;;;;;;63.42;31.83;;;4.70;99.90;;;;;;5053689;28;20025;-78
2022/03/26 00:24:58;;;;;;;61.00;30.67;;;4.70;99.90;;;;;;5054225;28;20449;-79
2022/03/26 00:27:24;;;;;;;62.88;31.55;;;4.80;99.90;;;;;;5054999;28;20017;-78
2022/03/26 00:29:49;;;;;;;58.40;30.10;;;4.80;99.90;;;;;;5037623;28;20036;-78
2022/03/26 00:32:15;;;;;;;60.60;30.55;;;4.80;99.90;;;;;;5055473;28;20032;-79
2022/03/26 00:34:41;;;;;;;59.40;30.60;;;4.80;99.90;;;;;;5035662;28;20360;-77
2022/03/26 00:37:06;;;;;;;64.60;31.45;;;4.80;99.90;;;;;;5053647;28;20025;-78
2022/03/26 00:39:33;;;;;;;56.38;29.38;;;4.80;99.90;;;;;;5054683;28;20365;-77
2022/03/26 00:41:59;;;;;;;56.33;29.15;;;4.80;99.90;;;;;;5053334;28;20452;-77
2022/03/26 00:44:25;;;;;;;58.17;29.27;;;4.80;99.90;;;;;;5047981;28;20018;-77
2022/03/26 00:46:51;;;;;;;57.88;29.80;;;4.80;99.90;;;;;;5045303;22;20096;-74
2022/03/26 00:49:18;;;;;;;63.05;30.75;;;4.80;99.90;;;;;;5039441;28;20063;-79
2022/03/26 00:51:44;;;;;;;65.75;29.23;;;4.70;99.90;;;;;;5040901;28;20031;-79
2022/03/26 00:54:10;;;;;;;61.58;30.75;;;4.60;99.90;;;;;;5058666;28;20021;-77
2022/03/26 00:56:37;;;;;;;71.88;32.97;;;4.60;99.90;;;;;;5040602;28;20025;-77
2022/03/26 00:59:04;;;;;;;100.97;41.00;;;4.60;99.90;;;;;;5040231;28;20504;-77
2022/03/26 01:01:30;;;;;;;281.90;77.18;;;4.60;99.90;;;;;;5058366;28;20028;-76
2022/03/26 01:03:55;;;;;;;83.68;36.55;;;4.60;99.90;;;;;;5058236;28;20032;-77
2022/03/26 01:06:21;;;;;;;73.70;30.77;;;4.40;99.90;;;;;;5057380;28;20129;-78
2022/03/26 01:08:47;;;;;;;64.72;29.45;;;4.30;99.90;;;;;;5041187;28;20025;-76
2022/03/26 01:11:12;;;;;;;62.15;31.73;;;4.20;99.90;;;;;;5062506;28;20491;-80
2022/03/26 01:13:39;;;;;;;203.50;61.05;;;4.10;99.90;;;;;;5045820;28;20116;-78
2022/03/26 01:16:06;;;;;;;80.70;34.33;;;4.10;99.90;;;;;;5064481;28;20021;-79
2022/03/26 01:18:33;;;;;;;153.95;50.10;;;4.00;99.90;;;;;;5063323;28;20025;-80
2022/03/26 01:20:59;;;;;;;78.05;34.83;;;4.00;99.90;;;;;;5045103;28;20459;-79
2022/03/26 01:23:25;;;;;;;71.25;32.50;;;4.00;99.90;;;;;;5062579;28;20025;-77
2022/03/26 01:25:51;;;;;;;67.93;31.55;;;3.90;99.90;;;;;;5041713;28;20037;-77
2022/03/26 01:28:17;;;;;;;107.18;42.72;;;3.80;99.90;;;;;;5059132;28;20057;-78
2022/03/26 01:30:43;;;;;;;126.53;45.28;;;3.80;99.90;;;;;;5041347;28;20029;-79
2022/03/26 01:33:09;;;;;;;79.18;36.00;;;3.80;99.90;;;;;;5059285;28;20044;-77
2022/03/26 01:35:35;;;;;;;68.88;34.15;;;3.90;99.90;;;;;;5041025;28;20472;-76
2022/03/26 01:38:01;;;;;;;71.25;31.38;;;3.90;99.90;;;;;;5057888;28;20017;-78
2022/03/26 01:40:27;;;;;;;122.15;45.60;;;3.90;99.90;;;;;;5039923;28;20507;-77
2022/03/26 01:42:54;;;;;;;74.45;34.22;;;4.00;99.90;;;;;;5039649;28;20021;-77
2022/03/26 01:45:20;;;;;;;74.43;35.47;;;4.00;99.90;;;;;;5039961;28;20400;-77
2022/03/26 01:47:45;;;;;;;65.15;30.73;;;3.90;99.90;;;;;;5057492;28;20082;-77
2022/03/26 01:50:11;;;;;;;57.40;30.63;;;3.80;99.90;;;;;;5038962;28;20021;-77
2022/03/26 01:52:37;;;;;;;60.67;30.05;;;3.70;99.90;;;;;;5057479;28;20033;-79
2022/03/26 01:55:03;;;;;;;64.85;29.95;;;3.60;99.90;;;;;;5057615;28;20025;-79
2022/03/26 01:57:29;;;;;;;66.20;31.92;;;3.60;99.90;;;;;;5056951;28;20107;-78
2022/03/26 01:59:55;;;;;;;62.13;30.65;;;3.50;99.90;;;;;;5039165;28;20056;-79
2022/03/26 02:02:22;;;;;;;60.92;30.33;;;3.50;99.90;;;;;;5038993;28;20075;-78
2022/03/26 02:04:47;;;;;;;59.00;31.48;;;3.50;99.90;;;;;;5057249;28;20025;-77
2022/03/26 02:07:13;;;;;;;64.35;31.40;;;3.50;99.90;;;;;;5056950;28;20480;-78
2022/03/26 02:09:39;;;;;;;69.45;32.45;;;3.40;99.90;;;;;;5056765;28;20533;-77
2022/03/26 02:12:24;;;;;;;62.67;30.65;;;3.40;99.90;;;;;;5038813;28;20036;-77
2022/03/26 02:14:51;;;;;;;70.95;33.75;;;3.40;99.90;;;;;;5056848;28;20021;-78
2022/03/26 02:17:17;;;;;;;62.47;29.60;;;3.40;99.90;;;;;;5056965;28;20035;-75
2022/03/26 02:19:54;;;;;;;64.45;31.00;;;3.30;99.90;;;;;;5056689;28;20017;-78
2022/03/26 02:22:20;;;;;;;66.93;31.65;;;3.30;99.90;;;;;;5056559;28;20025;-79
2022/03/26 02:24:47;;;;;;;69.05;31.70;;;3.30;99.90;;;;;;5038846;28;20385;-76
2022/03/26 02:27:14;;;;;;;64.55;31.55;;;3.30;99.90;;;;;;5057035;28;20535;-77
2022/03/26 02:29:40;;;;;;;69.60;34.33;;;3.30;99.90;;;;;;5039430;28;20021;-77
2022/03/26 02:32:06;;;;;;;72.93;35.55;;;3.30;99.90;;;;;;5056927;28;20027;-78
2022/03/26 02:34:32;;;;;;;73.88;34.20;;;3.40;99.90;;;;;;5047075;28;20025;-78
2022/03/26 02:36:59;;;;;;;67.95;32.92;;;3.40;99.90;;;;;;5066828;28;20025;-81
2022/03/26 02:39:25;;;;;;;66.75;31.83;;;3.40;99.90;;;;;;5039524;28;20384;-78
2022/03/26 02:41:51;;;;;;;63.72;32.22;;;3.40;99.90;;;;;;5039069;28;20066;-78
2022/03/26 02:44:17;;;;;;;63.63;30.98;;;3.40;99.90;;;;;;5067304;28;20096;-79
2022/03/26 02:46:45;;;;;;;63.45;31.65;;;3.40;99.90;;;;;;5085366;28;20028;-78
2022/03/26 02:49:12;;;;;;;68.30;32.20;;;3.40;99.90;;;;;;5082399;28;20458;-77
2022/03/26 02:51:37;;;;;;;67.93;31.33;;;3.40;99.90;;;;;;5061361;28;20032;-79
2022/03/26 02:54:05;;;;;;;64.32;31.98;;;3.30;99.90;;;;;;5061072;28;20086;-78
2022/03/26 02:56:31;;;;;;;59.28;29.70;;;3.20;99.90;;;;;;5085437;28;20024;-78
2022/03/26 02:58:57;;;;;;;60.05;30.50;;;3.10;99.90;;;;;;5084929;28;20150;-79
2022/03/26 03:01:23;;;;;;;62.17;28.95;;;3.00;99.90;;;;;;5084464;28;20021;-79
2022/03/26 03:03:50;;;;;;;67.28;31.33;;;3.00;99.90;;;;;;5082476;28;20363;-81
2022/03/26 03:06:16;;;;;;;61.33;30.33;;;3.10;99.90;;;;;;5086832;28;20050;-79
2022/03/26 03:08:42;;;;;;;58.20;29.23;;;3.00;99.90;;;;;;5084665;28;20099;-81
2022/03/26 03:11:08;;;;;;;62.78;30.02;;;2.90;99.90;;;;;;5085584;28;20028;-77
2022/03/26 03:13:34;;;;;;;57.60;29.15;;;2.80;99.90;;;;;;5057411;28;20487;-77
2022/03/26 03:16:00;;;;;;;59.42;29.95;;;2.70;99.90;;;;;;5075166;28;20032;-76
2022/03/26 03:18:25;;;;;;;59.05;29.35;;;2.70;99.90;;;;;;5056368;28;20024;-78
2022/03/26 03:20:51;;;;;;;59.80;29.98;;;2.70;99.90;;;;;;5075249;28;20036;-77
2022/03/26 03:23:17;;;;;;;67.38;30.98;;;2.60;99.90;;;;;;5082114;28;20020;-79
2022/03/26 03:25:42;;;;;;;67.95;31.75;;;2.60;99.90;;;;;;5094752;28;20025;-79
2022/03/26 03:28:08;;;;;;;60.53;29.90;;;2.60;99.90;;;;;;5081015;28;20499;-77
2022/03/26 03:30:34;;;;;;;64.47;30.98;;;2.60;99.90;;;;;;5074801;28;20082;-77
2022/03/26 03:33:00;;;;;;;68.28;33.25;;;2.60;99.90;;;;;;5075796;28;20028;-79
2022/03/26 03:35:26;;;;;;;71.20;33.55;;;2.60;99.90;;;;;;5076703;28;20051;-76
2022/03/26 03:37:53;;;;;;;65.65;33.20;;;2.70;99.90;;;;;;5057719;28;20028;-78
2022/03/26 03:40:19;;;;;;;67.50;33.67;;;2.70;99.90;;;;;;5058063;28;20039;-78
2022/03/26 03:42:45;;;;;;;65.75;31.08;;;2.70;99.90;;;;;;5057300;28;20027;-78
2022/03/26 03:45:11;;;;;;;66.55;32.95;;;2.70;99.90;;;;;;5043562;28;20021;-77
2022/03/26 03:47:37;;;;;;;65.57;30.27;;;2.80;99.90;;;;;;5055398;28;20029;-78
2022/03/26 03:50:05;;;;;;;74.15;33.90;;;2.80;99.90;;;;;;5054728;28;20451;-77
2022/03/26 03:52:30;;;;;;;70.22;32.83;;;2.80;99.90;;;;;;5055743;28;20029;-77
2022/03/26 03:54:56;;;;;;;67.18;30.83;;;2.80;99.90;;;;;;5037240;28;20048;-77
2022/03/26 03:57:21;;;;;;;69.90;32.17;;;2.80;99.90;;;;;;5054617;28;20029;-75
2022/03/26 03:59:47;;;;;;;66.55;32.53;;;2.90;99.90;;;;;;5054445;28;20035;-75
2022/03/26 04:02:13;;;;;;;69.15;31.63;;;2.90;99.90;;;;;;5037060;28;20028;-76
2022/03/26 04:04:42;;;;;;;66.03;32.05;;;2.90;99.90;;;;;;5036722;28;20387;-76
2022/03/26 04:07:08;;;;;;;64.57;31.67;;;2.90;99.90;;;;;;5036670;28;20044;-77
2022/03/26 04:09:35;;;;;;;68.70;32.53;;;2.80;99.90;;;;;;5036724;28;20078;-77
2022/03/26 04:12:01;;;;;;;67.00;33.05;;;2.80;99.90;;;;;;5036438;28;20092;-77
2022/03/26 04:14:27;;;;;;;67.25;33.45;;;2.70;99.90;;;;;;5054512;28;20382;-79
2022/03/26 04:16:53;;;;;;;63.80;31.50;;;2.80;99.90;;;;;;5054346;28;20108;-77
2022/03/26 04:19:19;;;;;;;74.00;33.45;;;2.80;99.90;;;;;;5053635;28;20017;-78
2022/03/26 04:21:45;;;;;;;68.07;32.70;;;2.80;99.90;;;;;;5039144;28;20040;-79
2022/03/26 04:24:11;;;;;;;71.18;32.70;;;2.90;99.90;;;;;;5062005;28;20025;-81
2022/03/26 04:26:37;;;;;;;60.63;31.05;;;2.80;99.90;;;;;;5059642;28;20388;-80
2022/03/26 04:29:03;;;;;;;65.00;31.67;;;2.80;99.90;;;;;;5057926;28;20032;-77
2022/03/26 04:31:28;;;;;;;64.90;32.20;;;2.80;99.90;;;;;;5039787;28;20029;-76
2022/03/26 04:33:55;;;;;;;68.38;32.42;;;2.80;99.90;;;;;;5056996;28;20025;-77
2022/03/26 04:36:21;;;;;;;69.80;33.33;;;2.70;99.90;;;;;;5037835;28;20029;-77
2022/03/26 04:38:47;;;;;;;72.70;33.47;;;2.70;99.90;;;;;;5055373;28;20044;-77
2022/03/26 04:41:14;;;;;;;71.68;32.38;;;2.80;99.90;;;;;;5054972;28;20048;-77
2022/03/26 04:43:40;;;;;;;65.60;31.45;;;2.90;99.90;;;;;;5056500;28;20540;-79
2022/03/26 04:46:06;;;;;;;58.95;30.67;;;2.90;99.90;;;;;;5074337;28;20069;-77
2022/03/26 04:48:32;;;;;;;57.33;29.23;;;2.80;99.90;;;;;;5055441;28;20119;-79
2022/03/26 04:50:58;;;;;;;58.85;30.27;;;2.70;99.90;;;;;;5055981;28;20516;-77
2022/03/26 04:53:24;;;;;;;66.18;32.97;;;2.60;99.90;;;;;;5073369;28;20511;-79
2022/03/26 04:55:49;;;;;;;68.85;32.13;;;2.50;99.90;;;;;;5073056;28;20040;-80
2022/03/26 04:58:15;;;;;;;70.07;31.33;;;2.50;99.90;;;;;;5072884;28;20344;-78
2022/03/26 05:00:40;;;;;;;57.72;28.63;;;2.40;99.90;;;;;;5055378;28;20436;-77
2022/03/26 05:03:07;;;;;;;61.42;29.67;;;2.30;99.90;;;;;;5055606;28;20211;-78
2022/03/26 05:05:32;;;;;;;66.63;32.60;;;2.30;99.90;;;;;;5074720;28;20033;-77
2022/03/26 05:07:59;;;;;;;65.53;31.42;;;2.20;99.90;;;;;;5073291;28;20483;-75
2022/03/26 05:10:29;;;;;;;66.30;31.08;;;2.20;99.90;;;;;;5055846;28;20033;-78
2022/03/26 05:12:57;;;;;;;64.32;30.88;;;2.20;99.90;;;;;;5074035;28;20098;-77
2022/03/26 05:15:24;;;;;;;61.72;30.35;;;2.10;99.90;;;;;;5073188;28;20030;-77
2022/03/26 05:17:51;;;;;;;59.25;30.58;;;2.10;99.90;;;;;;5055478;28;20027;-78
2022/03/26 05:20:18;;;;;;;73.70;33.65;;;2.00;99.90;;;;;;5073281;28;20063;-78
2022/03/26 05:22:45;;;;;;;63.65;30.58;;;2.00;99.90;;;;;;5073209;28;20026;-77
2022/03/26 05:25:12;;;;;;;62.38;29.80;;;2.00;99.90;;;;;;5055194;28;20476;-79
2022/03/26 05:27:42;;;;;;;61.75;31.52;;;2.00;99.90;;;;;;5073452;28;20029;-78
2022/03/26 05:30:08;;;;;;;69.47;32.72;;;2.00;99.90;;;;;;5055907;28;20071;-78
2022/03/26 05:32:34;;;;;;;62.53;33.42;;;2.00;99.90;;;;;;5077097;28;20028;-78
2022/03/26 05:34:59;;;;;;;69.18;31.75;;;1.90;99.90;;;;;;5058967;28;20032;-78
2022/03/26 05:37:25;;;;;;;68.05;30.85;;;2.00;99.90;;;;;;5058202;28;20029;-78
2022/03/26 05:39:51;;;;;;;69.90;32.70;;;2.00;99.90;;;;;;5058756;28;20021;-78
2022/03/26 05:42:17;;;;;;;75.20;34.65;;;2.00;99.90;;;;;;5058883;28;20025;-80
2022/03/26 05:44:43;;;;;;;67.65;32.60;;;2.10;99.90;;;;;;5066463;28;20028;-79
2022/03/26 05:47:08;;;;;;;74.15;34.38;;;2.20;99.90;;;;;;5056342;28;20025;-78
2022/03/26 05:49:35;;;;;;;68.72;32.53;;;2.30;99.90;;;;;;5055975;28;20051;-76
2022/03/26 05:52:00;;;;;;;67.32;33.60;;;2.40;99.90;;;;;;5057008;28;20395;-78
2022/03/26 05:54:26;;;;;;;73.88;33.90;;;2.50;99.90;;;;;;5056843;28;20032;-76
2022/03/26 05:56:51;;;;;;;64.53;32.55;;;2.60;99.90;;;;;;5056846;28;20052;-78
2022/03/26 05:59:23;;;;;;;70.28;33.28;;;2.60;99.90;;;;;;5038587;28;20029;-77
2022/03/26 06:01:49;;;;;;;71.45;34.60;;;2.70;99.90;;;;;;5056906;28;20063;-78
2022/03/26 06:04:16;;;;;;;74.25;36.22;;;2.80;99.90;;;;;;5056067;28;20029;-77
2022/03/26 06:06:42;;;;;;;70.15;33.50;;;2.90;99.90;;;;;;5040407;28;20140;-80
2022/03/26 06:09:09;;;;;;;71.60;33.35;;;3.00;99.90;;;;;;5050671;28;20035;-80
2022/03/26 06:11:35;;;;;;;65.03;32.53;;;3.10;99.90;;;;;;5064737;28;20025;-79
2022/03/26 06:14:00;;;;;;;65.47;30.70;;;3.20;99.90;;;;;;5057835;28;20158;-79
2022/03/26 06:16:26;;;;;;;59.42;31.48;;;3.40;99.90;;;;;;5056315;28;20056;-79
2022/03/26 06:18:52;;;;;;;73.00;35.00;;;3.50;99.90;;;;;;5065968;28;20029;-81
2022/03/26 06:21:17;;;;;;;61.45;31.25;;;3.60;99.90;;;;;;5049475;28;20033;-80
2022/03/26 06:23:43;;;;;;;65.43;33.38;;;3.70;99.90;;;;;;5041517;28;20052;-74
2022/03/26 06:26:09;;;;;;;61.33;30.27;;;3.90;99.90;;;;;;5057092;28;20021;-78
2022/03/26 06:28:35;;;;;;;65.07;29.90;;;4.10;99.90;;;;;;5060879;28;20025;-78
2022/03/26 06:31:01;;;;;;;54.85;30.38;;;4.40;99.90;;;;;;5048202;28;20078;-80
2022/03/26 06:33:26;;;;;;;53.45;29.60;;;4.70;99.90;;;;;;5059808;28;20029;-79
2022/03/26 06:35:52;;;;;;;59.15;30.92;;;4.90;99.90;;;;;;5056739;28;20090;-77
2022/03/26 06:38:18;;;;;;;57.10;31.30;;;5.20;99.90;;;;;;5057275;28;20037;-76
2022/03/26 06:40:43;;;;;;;55.65;29.35;;;5.50;99.90;;;;;;5056938;28;20039;-78
2022/03/26 06:43:09;;;;;;;49.55;28.60;;;5.80;99.90;;;;;;5037245;28;20120;-78
2022/03/26 06:45:35;;;;;;;55.08;30.55;;;6.10;99.90;;;;;;5073406;28;20463;-82
2022/03/26 06:48:03;;;;;;;53.85;30.50;;;6.40;99.90;;;;;;5084543;22;20071;-78
2022/03/26 06:50:29;;;;;;;54.22;29.40;;;6.80;99.90;;;;;;5020966;28;20106;-79
2022/03/26 06:52:55;;;;;;;55.63;29.98;;;7.00;99.90;;;;;;5003122;28;20026;-83
2022/03/26 06:55:22;;;;;;;52.90;30.15;;;7.40;99.90;;;;;;5001947;28;20131;-80
2022/03/26 06:57:49;;;;;;;53.40;29.73;;;7.70;99.90;;;;;;5000861;28;20026;-85
2022/03/26 07:00:16;;;;;;;57.15;30.73;;;7.90;99.90;;;;;;5001213;28;20393;-86
2022/03/26 07:02:42;;;;;;;51.60;29.75;;;8.20;99.90;;;;;;5000853;28;20093;-83
2022/03/26 07:05:08;;;;;;;57.63;31.23;;;8.50;99.90;;;;;;5002012;28;20022;-84
2022/03/26 07:07:36;;;;;;;57.70;31.75;;;8.70;99.90;;;;;;5019767;28;20260;-85
2022/03/26 07:10:02;;;;;;;53.17;29.95;;;9.00;99.90;;;;;;5002813;28;20026;-84
2022/03/26 07:12:29;;;;;;;57.47;31.33;;;9.20;99.90;;;;;;5000197;28;20099;-84
2022/03/26 07:14:55;;;;;;;53.13;31.15;;;9.30;99.90;;;;;;5018763;28;20089;-86
2022/03/26 07:17:20;;;;;;;58.33;32.10;;;9.50;99.90;;;;;;5000668;28;20136;-83
2022/03/26 07:19:46;;;;;;;57.30;31.05;;;9.70;99.90;;;;;;4999311;28;20486;-84
2022/03/26 07:22:12;;;;;;;64.22;33.22;;;9.80;99.90;;;;;;5000158;28;20167;-84
2022/03/26 07:24:37;;;;;;;56.47;32.50;;;10.00;99.90;;;;;;4999274;28;20036;-87
2022/03/26 07:27:05;;;;;;;57.30;32.13;;;10.20;99.90;;;;;;4999387;28;20048;-79
2022/03/26 07:29:32;;;;;;;61.58;34.45;;;10.40;99.90;;;;;;4998896;28;20030;-84
2022/03/26 07:31:58;;;;;;;56.90;31.58;;;10.70;99.90;;;;;;4998264;28;20059;-84
2022/03/26 07:34:26;;;;;;;53.90;32.15;;;10.80;99.90;;;;;;4999158;28;20171;-85
2022/03/26 07:36:52;;;;;;;55.08;30.27;;;11.20;99.90;;;;;;5001177;28;20129;-84
2022/03/26 07:39:18;;;;;;;60.75;31.85;;;11.40;99.90;;;;;;5001056;28;20025;-83
2022/03/26 07:41:44;;;;;;;51.25;30.98;;;11.70;99.90;;;;;;5014250;28;20470;-82
2022/03/26 07:44:10;;;;;;;55.33;32.00;;;11.90;99.90;;;;;;4996342;28;20049;-81
2022/03/26 07:46:35;;;;;;;54.38;30.63;;;12.20;99.90;;;;;;4996466;28;20031;-81
2022/03/26 07:49:02;;;;;;;50.10;30.67;;;12.50;99.90;;;;;;4996473;28;20568;-85
2022/03/26 07:51:27;;;;;;;52.50;30.52;;;12.90;99.90;;;;;;4997133;28;20022;-86
2022/03/26 07:53:53;;;;;;;57.25;33.65;;;13.20;99.90;;;;;;4996397;28;20026;-86
2022/03/26 07:56:18;;;;;;;57.45;31.42;;;13.40;99.90;;;;;;4996926;28;20109;-86
2022/03/26 07:58:44;;;;;;;56.90;32.20;;;13.60;99.90;;;;;;5017149;28;20093;-87
2022/03/26 08:01:10;;;;;;;50.25;29.63;;;13.70;96.50;;;;;;4999114;28;20392;-84
2022/03/26 08:03:36;;;;;;;58.50;31.65;;;14.00;96.30;;;;;;4998801;28;20026;-85
2022/03/26 08:06:02;;;;;;;58.35;32.72;;;14.20;92.40;;;;;;4999748;28;20026;-88
2022/03/26 08:08:29;;;;;;;52.85;29.67;;;14.30;90.70;;;;;;5035004;28;20030;-80
2022/03/26 08:10:55;;;;;;;51.42;30.70;;;14.40;90.30;;;;;;5014229;28;20030;-79
2022/03/26 08:13:21;;;;;;;58.47;32.85;;;14.50;87.70;;;;;;5002854;28;20022;-82
2022/03/26 08:15:47;;;;;;;54.25;32.72;;;14.60;84.30;;;;;;4997750;28;20152;-83
2022/03/26 08:18:13;;;;;;;53.05;33.28;;;14.70;82.50;;;;;;5015183;28;20029;-82
2022/03/26 08:20:38;;;;;;;48.80;31.58;;;14.90;80.50;;;;;;4996740;28;20037;-85
2022/03/26 08:23:04;;;;;;;53.17;32.03;;;15.00;79.60;;;;;;4996098;28;20041;-85
2022/03/26 08:28:14;;;;;;;53.53;32.40;;;15.40;77.20;;;;;;5014345;28;20072;-81
2022/03/26 08:30:41;;;;;;;59.38;33.33;;;15.60;76.50;;;;;;5014437;28;20030;-84
2022/03/26 08:33:07;;;;;;;48.63;32.38;;;15.60;74.40;;;;;;5013017;28;20330;-83
2022/03/26 08:35:39;;;;;;;55.63;32.40;;;15.60;73.80;;;;;;4995572;28;20414;-83
2022/03/26 08:38:05;;;;;;;49.80;30.67;;;15.70;74.20;;;;;;4996244;28;20109;-83
2022/03/26 08:40:32;;;;;;;52.05;29.77;;;15.80;73.20;;;;;;4995784;28;20117;-82
2022/03/26 08:43:00;;;;;;;51.75;30.27;;;15.90;73.20;;;;;;4996899;28;20029;-81
2022/03/26 08:45:29;;;;;;;43.67;28.35;;;16.00;72.00;;;;;;4997277;28;20018;-84
2022/03/26 08:47:55;;;;;;;48.90;30.00;;;16.30;72.60;;;;;;5015425;28;20477;-85
2022/03/26 08:50:22;;;;;;;43.47;28.98;;;16.60;70.90;;;;;;4996907;28;20030;-81
2022/03/26 08:52:47;;;;;;;54.20;31.27;;;16.50;69.60;;;;;;4997295;28;20026;-82
2022/03/26 08:55:14;;;;;;;51.70;30.95;;;16.60;69.90;;;;;;4997841;28;20037;-84
2022/03/26 08:57:41;;;;;;;49.33;29.70;;;16.80;69.10;;;;;;4997267;28;20124;-81
2022/03/26 09:00:10;;;;;;;47.30;29.92;;;16.80;68.20;;;;;;5005810;28;20125;-82
2022/03/26 09:02:55;;;;;;;;;;;;;;;;;;;;;
2022/03/26 09:05:34;;;;;;;52.63;29.80;;;16.70;68.80;;;;;;5022990;28;20112;-84
2022/03/26 09:08:24;;;;;;;57.58;31.08;;;16.70;68.20;;;;;;5000774;28;20340;-87
2022/03/26 09:14:48;;;;;;;48.38;29.60;;;17.00;68.50;;;;;;5007271;28;20057;-86
2022/03/26 09:21:49;;;;;;;;;;;;;;;;;;;;;
2022/03/26 09:24:37;;;;;;;44.70;24.30;;;17.30;67.30;;;;;;4951424;28;20113;-85
2022/03/26 09:27:19;;;;;;;45.72;24.70;;;17.50;66.30;;;;;;4961007;28;20034;-85
2022/03/26 09:29:52;;;;;;;45.97;26.13;;;17.50;66.20;;;;;;5001280;28;20111;-85
2022/03/26 09:32:42;;;;;;;38.63;23.50;;;17.60;67.60;;;;;;5011154;28;20049;-87
2022/03/26 09:35:25;;;;;;;43.50;24.77;;;17.70;66.30;;;;;;5000584;28;20025;-86
2022/03/26 09:37:55;;;;;;;40.85;25.05;;;18.00;64.70;;;;;;5000156;28;20022;-87
2022/03/26 09:40:33;;;;;;;36.97;22.58;;;18.10;65.90;;;;;;5017865;28;20029;-84
2022/03/26 09:43:02;;;;;;;43.67;24.38;;;18.10;64.40;;;;;;5001634;28;20034;-85
2022/03/26 09:45:35;;;;;;;48.22;24.38;;;18.10;63.40;;;;;;5001373;28;20018;-88
2022/03/26 09:48:12;;;;;;;38.75;22.25;;;18.20;63.00;;;;;;5000502;28;20030;-83
2022/03/26 09:50:44;;;;;;;37.00;22.98;;;18.20;63.40;;;;;;5000439;28;20049;-85
2022/03/26 09:53:13;;;;;;;35.50;20.10;;;18.40;63.10;;;;;;5000020;28;20025;-87
2022/03/26 09:55:45;;;;;;;32.17;19.60;;;18.40;62.50;;;;;;5018277;28;20443;-85
2022/03/26 09:58:12;;;;;;;35.63;19.20;;;18.60;61.10;;;;;;5000327;28;20026;-86
2022/03/26 10:00:41;;;;;;;30.92;18.25;;;18.90;59.80;;;;;;5000170;28;20072;-86
2022/03/26 10:03:10;;;;;;;33.45;20.17;;;18.80;59.80;;;;;;5000281;28;20343;-85
2022/03/26 10:09:55;;;;;;;29.83;16.60;;;19.10;59.90;;;;;;5018251;28;20036;-88
2022/03/26 10:16:10;;;;;;;27.63;14.38;;;19.00;58.90;;;;;;4989502;28;20490;-90
2022/03/26 10:18:56;;;;;;;25.35;13.77;;;19.10;56.10;;;;;;4995311;28;20127;-88
2022/03/26 10:21:32;;;;;;;27.92;16.50;;;19.40;56.40;;;;;;5017973;28;20049;-89
2022/03/26 10:24:00;;;;;;;22.13;13.82;;;19.60;56.50;;;;;;5000567;28;20026;-87
2022/03/26 10:26:50;;;;;;;27.90;15.45;;;19.80;58.10;;;;;;5000078;28;20053;-86
2022/03/26 10:29:43;;;;;;;25.88;15.30;;;19.80;56.60;;;;;;5000084;28;20026;-85
2022/03/26 10:35:34;;;;;;;21.85;12.95;;;19.60;58.80;;;;;;5017860;28;20076;-85
2022/03/26 10:38:02;;;;;;;25.77;14.05;;;19.60;58.80;;;;;;4986833;28;20053;-85
2022/03/26 10:40:38;;;;;;;19.73;11.68;;;19.60;59.30;;;;;;5001002;28;20072;-86
2022/03/26 10:43:05;;;;;;;23.95;13.18;;;19.60;59.30;;;;;;5021612;28;20022;-84
2022/03/26 10:45:33;;;;;;;27.25;14.10;;;19.70;58.80;;;;;;5017451;28;20363;-84
2022/03/26 10:48:01;;;;;;;24.63;13.57;;;19.80;57.60;;;;;;5003062;28;20030;-85
2022/03/26 10:50:36;;;;;;;20.58;12.80;;;19.80;57.40;;;;;;5002700;28;20057;-88
2022/03/26 10:53:14;;;;;;;18.42;11.82;;;19.90;58.80;;;;;;5002700;28;20049;-84
2022/03/26 10:55:40;;;;;;;20.75;11.52;;;19.70;58.60;;;;;;5001711;28;20033;-85
2022/03/26 10:58:08;;;;;;;24.13;12.45;;;20.00;58.20;;;;;;5002539;28;20393;-85
2022/03/26 11:00:34;;;;;;;16.77;10.25;;;20.10;57.50;;;;;;5018689;28;20386;-88
2022/03/26 11:03:00;;;;;;;20.45;11.35;;;20.30;56.20;;;;;;5017965;28;20030;-88
2022/03/26 11:05:26;;;;;;;14.70;9.30;;;20.40;56.50;;;;;;4999958;28;20034;-87
2022/03/26 11:07:53;;;;;;;16.40;10.95;;;20.30;56.60;;;;;;5003082;28;20022;-89
2022/03/26 11:10:24;;;;;;;15.50;8.70;;;20.10;56.30;;;;;;5004613;28;20405;-84
2022/03/26 11:12:50;;;;;;;16.60;9.05;;;20.00;58.50;;;;;;5004909;28;20422;-87
2022/03/26 11:15:27;;;;;;;13.93;9.00;;;20.40;57.30;;;;;;5016493;28;20037;-86
2022/03/26 11:18:24;;;;;;;16.70;9.15;;;20.50;56.60;;;;;;5015125;28;20052;-88
2022/03/26 11:21:07;;;;;;;15.13;9.48;;;20.50;55.60;;;;;;5008142;28;20094;-88
2022/03/26 11:23:40;;;;;;;14.73;8.90;;;20.60;55.60;;;;;;5010977;28;20038;-87
2022/03/26 11:26:23;;;;;;;16.23;10.38;;;20.70;56.20;;;;;;5004926;28;20097;-86
2022/03/26 11:29:16;;;;;;;18.80;10.52;;;20.40;55.80;;;;;;5004670;28;20018;-87
2022/03/26 11:31:50;;;;;;;13.43;9.07;;;20.60;55.90;;;;;;5005687;28;20306;-86
2022/03/26 11:34:18;;;;;;;12.95;8.73;;;20.70;55.10;;;;;;5019706;28;20090;-83
2022/03/26 11:36:43;;;;;;;16.70;9.18;;;20.80;55.10;;;;;;5004939;28;20076;-86
2022/03/26 11:39:15;;;;;;;15.35;9.38;;;21.00;54.00;;;;;;5002925;28;20029;-87
2022/03/26 11:41:45;;;;;;;13.85;8.18;;;20.70;54.10;;;;;;5003644;28;20367;-87
2022/03/26 11:44:12;;;;;;;16.63;9.02;;;20.50;54.40;;;;;;5006408;28;20026;-88
2022/03/26 11:52:27;;;;;;;14.90;8.48;;;20.40;54.90;;;;;;5021647;28;20089;-85
2022/03/26 11:55:24;;;;;;;17.67;9.30;;;20.50;54.70;;;;;;5005553;28;20041;-86
2022/03/26 11:58:17;;;;;;;16.40;9.23;;;20.80;54.20;;;;;;5002413;28;20033;-86
2022/03/26 12:00:53;;;;;;;12.63;8.15;;;20.90;54.40;;;;;;4994659;28;20128;-87
2022/03/26 12:03:26;;;;;;;14.95;8.63;;;20.90;54.80;;;;;;5001674;28;20106;-84
2022/03/26 12:08:52;;;;;;;18.20;8.70;;;21.00;53.70;;;;;;5020365;28;20029;-85
2022/03/26 12:11:21;;;;;;;17.98;10.13;;;21.00;53.60;;;;;;5003016;28;20030;-85
2022/03/26 12:14:01;;;;;;;20.00;10.82;;;20.60;54.40;;;;;;5001612;28;20029;-83
2022/03/26 12:16:55;;;;;;;18.00;9.73;;;20.60;55.10;;;;;;5002740;28;20017;-87
2022/03/26 12:19:39;;;;;;;18.08;9.98;;;20.60;54.50;;;;;;4999645;28;20025;-83
2022/03/26 12:22:26;;;;;;;17.80;10.10;;;20.50;55.20;;;;;;4998496;28;20029;-85
2022/03/26 12:24:55;;;;;;;18.23;10.63;;;20.60;54.90;;;;;;4999044;28;20026;-86
2022/03/26 12:27:21;;;;;;;20.58;10.95;;;20.50;55.70;;;;;;4999247;28;20485;-86
2022/03/26 12:29:47;;;;;;;19.73;11.43;;;20.50;56.00;;;;;;4999245;28;20125;-85
2022/03/26 12:32:13;;;;;;;19.50;10.63;;;20.30;56.00;;;;;;4999700;28;20029;-85
2022/03/26 12:34:56;;;;;;;19.33;10.73;;;20.10;56.60;;;;;;4998525;28;20375;-87
2022/03/26 12:37:23;;;;;;;15.77;10.93;;;20.50;57.50;;;;;;4998302;28;20485;-84
2022/03/26 12:39:50;;;;;;;20.30;10.95;;;20.60;55.30;;;;;;4997378;28;20030;-86
2022/03/26 12:42:17;;;;;;;16.40;10.02;;;20.70;55.50;;;;;;4997776;28;20021;-87
2022/03/26 12:44:42;;;;;;;16.52;7.95;;;20.80;55.30;;;;;;5008262;28;20458;-84
2022/03/26 12:47:08;;;;;;;13.48;8.10;;;21.00;54.60;;;;;;5016570;28;20124;-88
2022/03/26 12:49:37;;;;;;;11.95;8.52;;;20.70;54.50;;;;;;4988056;28;20049;-87
2022/03/26 12:52:03;;;;;;;12.18;7.80;;;20.10;55.20;;;;;;5018131;28;20050;-87
2022/03/26 12:54:30;;;;;;;11.80;7.78;;;19.50;56.30;;;;;;4997049;28;20478;-84
2022/03/26 12:56:55;;;;;;;13.95;7.75;;;19.00;57.60;;;;;;5029232;28;20385;-87
2022/03/26 12:59:21;;;;;;;11.05;7.65;;;18.80;58.50;;;;;;5016548;28;20026;-86
2022/03/26 13:01:47;;;;;;;15.50;7.88;;;19.10;57.60;;;;;;5021708;28;20432;-83
2022/03/26 13:04:19;;;;;;;12.60;7.90;;;19.40;57.20;;;;;;5008700;28;20037;-86
2022/03/26 13:06:45;;;;;;;11.18;7.78;;;19.70;56.70;;;;;;5000673;28;20022;-85
2022/03/26 13:09:11;;;;;;;12.65;8.40;;;19.80;56.20;;;;;;5018053;28;20022;-86
2022/03/26 13:11:37;;;;;;;12.15;8.18;;;20.00;56.40;;;;;;5031951;28;20479;-85